sensor_id;sensor_type;location;lat;lon;timestamp;temperature;humidity
19152;DHT22;9708;53.114;9.388;2024-03-22T00:01:15;9.40;99.90
19152;DHT22;9708;53.114;9.388;2024-03-22T00:03:42;9.40;99.90
19152;DHT22;9708;53.114;9.388;2024-03-22T00:06:08;9.40;99.90
19152;DHT22;9708;53.114;9.388;2024-03-22T00:08:35;9.50;99.90
19152;DHT22;9708;53.114;9.388;2024-03-22T00:11:00;9.40;99.90
19152;DHT22;9708;53.114;9.388;2024-03-22T00:13:27;9.50;99.90
19152;DHT22;9708;53.114;9.388;2024-03-22T00:15:53;9.50;99.90
19152;DHT22;9708;53.114;9.388;2024-03-22T00:18:21;9.50;99.90
19152;DHT22;9708;53.114;9.388;2024-03-22T00:20:47;9.60;99.90
19152;DHT22;9708;53.114;9.388;2024-03-22T00:23:14;9.60;99.90
19152;DHT22;9708;53.114;9.388;2024-03-22T00:25:40;9.60;99.90
19152;DHT22;9708;53.114;9.388;2024-03-22T00:28:07;9.60;99.90
19152;DHT22;9708;53.114;9.388;2024-03-22T00:30:33;9.60;99.90
19152;DHT22;9708;53.114;9.388;2024-03-22T00:32:59;9.60;99.90
19152;DHT22;9708;53.114;9.388;2024-03-22T00:35:27;9.60;99.90
19152;DHT22;9708;53.114;9.388;2024-03-22T00:37:54;9.60;99.90
19152;DHT22;9708;53.114;9.388;2024-03-22T00:40:20;9.60;99.90
19152;DHT22;9708;53.114;9.388;2024-03-22T00:42:46;9.60;99.90
19152;DHT22;9708;53.114;9.388;2024-03-22T00:45:12;9.60;99.90
19152;DHT22;9708;53.114;9.388;2024-03-22T00:47:39;9.70;99.90
19152;DHT22;9708;53.114;9.388;2024-03-22T00:50:06;9.70;99.90
19152;DHT22;9708;53.114;9.388;2024-03-22T00:52:34;9.70;99.90
19152;DHT22;9708;53.114;9.388;2024-03-22T00:55:00;9.70;99.90
19152;DHT22;9708;53.114;9.388;2024-03-22T00:57:27;9.70;99.90
19152;DHT22;9708;53.114;9.388;2024-03-22T00:59:53;9.70;99.90
19152;DHT22;9708;53.114;9.388;2024-03-22T01:02:20;9.70;99.90
19152;DHT22;9708;53.114;9.388;2024-03-22T01:04:47;9.70;99.90
19152;DHT22;9708;53.114;9.388;2024-03-22T01:07:14;9.70;99.90
19152;DHT22;9708;53.114;9.388;2024-03-22T01:09:42;9.70;99.90
19152;DHT22;9708;53.114;9.388;2024-03-22T01:12:09;9.70;99.90
19152;DHT22;9708;53.114;9.388;2024-03-22T01:14:35;9.70;99.90
19152;DHT22;9708;53.114;9.388;2024-03-22T01:17:02;9.70;99.90
19152;DHT22;9708;53.114;9.388;2024-03-22T01:19:28;9.70;99.90
19152;DHT22;9708;53.114;9.388;2024-03-22T01:21:55;9.70;99.90
19152;DHT22;9708;53.114;9.388;2024-03-22T01:24:21;9.80;99.90
19152;DHT22;9708;53.114;9.388;2024-03-22T01:26:49;9.80;99.90
19152;DHT22;9708;53.114;9.388;2024-03-22T01:29:15;9.80;99.90
19152;DHT22;9708;53.114;9.388;2024-03-22T01:31:42;9.80;99.90
19152;DHT22;9708;53.114;9.388;2024-03-22T01:34:08;9.80;99.90
19152;DHT22;9708;53.114;9.388;2024-03-22T01:36:35;9.80;99.90
19152;DHT22;9708;53.114;9.388;2024-03-22T01:39:01;9.80;99.90
19152;DHT22;9708;53.114;9.388;2024-03-22T01:41:28;9.80;99.90
19152;DHT22;9708;53.114;9.388;2024-03-22T01:43:55;9.90;99.90
19152;DHT22;9708;53.114;9.388;2024-03-22T01:46:22;9.80;99.90
19152;DHT22;9708;53.114;9.388;2024-03-22T01:48:47;9.80;99.90
19152;DHT22;9708;53.114;9.388;2024-03-22T01:51:14;9.80;99.90
19152;DHT22;9708;53.114;9.388;2024-03-22T01:53:41;9.80;99.90
19152;DHT22;9708;53.114;9.388;2024-03-22T01:56:09;9.90;99.90
19152;DHT22;9708;53.114;9.388;2024-03-22T01:58:35;9.90;99.90
19152;DHT22;9708;53.114;9.388;2024-03-22T02:01:04;9.80;99.90
19152;DHT22;9708;53.114;9.388;2024-03-22T02:03:30;9.90;99.90
19152;DHT22;9708;53.114;9.388;2024-03-22T02:05:57;9.90;99.90
19152;DHT22;9708;53.114;9.388;2024-03-22T02:08:22;9.90;99.90
19152;DHT22;9708;53.114;9.388;2024-03-22T02:10:49;9.90;99.90
19152;DHT22;9708;53.114;9.388;2024-03-22T02:13:15;9.90;99.90
19152;DHT22;9708;53.114;9.388;2024-03-22T02:15:42;9.90;99.90
19152;DHT22;9708;53.114;9.388;2024-03-22T02:18:09;9.90;99.90
19152;DHT22;9708;53.114;9.388;2024-03-22T02:20:36;9.90;99.90
19152;DHT22;9708;53.114;9.388;2024-03-22T02:23:02;9.90;99.90
19152;DHT22;9708;53.114;9.388;2024-03-22T02:25:30;9.90;99.90
19152;DHT22;9708;53.114;9.388;2024-03-22T02:27:56;10.00;99.90
19152;DHT22;9708;53.114;9.388;2024-03-22T02:30:23;10.00;99.90
19152;DHT22;9708;53.114;9.388;2024-03-22T02:32:49;10.00;99.90
19152;DHT22;9708;53.114;9.388;2024-03-22T02:35:16;10.00;99.90
19152;DHT22;9708;53.114;9.388;2024-03-22T02:37:42;10.00;99.90
19152;DHT22;9708;53.114;9.388;2024-03-22T02:40:09;10.00;99.90
19152;DHT22;9708;53.114;9.388;2024-03-22T02:42:37;10.00;99.90
19152;DHT22;9708;53.114;9.388;2024-03-22T02:45:04;10.00;99.90
19152;DHT22;9708;53.114;9.388;2024-03-22T02:47:30;10.00;99.90
19152;DHT22;9708;53.114;9.388;2024-03-22T02:49:57;10.00;99.90
19152;DHT22;9708;53.114;9.388;2024-03-22T02:52:23;10.00;99.90
19152;DHT22;9708;53.114;9.388;2024-03-22T02:54:50;10.00;99.90
19152;DHT22;9708;53.114;9.388;2024-03-22T02:57:16;10.00;99.90
19152;DHT22;9708;53.114;9.388;2024-03-22T02:59:44;10.00;99.90
19152;DHT22;9708;53.114;9.388;2024-03-22T03:02:10;10.00;99.90
19152;DHT22;9708;53.114;9.388;2024-03-22T03:04:37;10.00;99.90
19152;DHT22;9708;53.114;9.388;2024-03-22T03:07:03;10.10;99.90
19152;DHT22;9708;53.114;9.388;2024-03-22T03:09:30;10.00;99.90
19152;DHT22;9708;53.114;9.388;2024-03-22T03:11:55;10.10;99.90
19152;DHT22;9708;53.114;9.388;2024-03-22T03:14:22;10.10;99.90
19152;DHT22;9708;53.114;9.388;2024-03-22T03:16:49;10.00;99.90
19152;DHT22;9708;53.114;9.388;2024-03-22T03:19:16;10.10;99.90
19152;DHT22;9708;53.114;9.388;2024-03-22T03:21:42;10.10;99.90
19152;DHT22;9708;53.114;9.388;2024-03-22T03:24:09;10.10;99.90
19152;DHT22;9708;53.114;9.388;2024-03-22T03:26:35;10.10;99.90
19152;DHT22;9708;53.114;9.388;2024-03-22T03:29:02;10.10;99.90
19152;DHT22;9708;53.114;9.388;2024-03-22T03:31:28;10.10;99.90
19152;DHT22;9708;53.114;9.388;2024-03-22T03:33:56;10.10;99.90
19152;DHT22;9708;53.114;9.388;2024-03-22T03:36:22;10.10;99.90
19152;DHT22;9708;53.114;9.388;2024-03-22T03:38:49;10.10;99.90
19152;DHT22;9708;53.114;9.388;2024-03-22T03:41:14;10.00;99.90
19152;DHT22;9708;53.114;9.388;2024-03-22T03:43:41;10.00;99.90
19152;DHT22;9708;53.114;9.388;2024-03-22T03:46:07;10.00;99.90
19152;DHT22;9708;53.114;9.388;2024-03-22T03:48:34;10.00;99.90
19152;DHT22;9708;53.114;9.388;2024-03-22T03:51:01;10.00;99.90
19152;DHT22;9708;53.114;9.388;2024-03-22T03:53:29;10.00;99.90
19152;DHT22;9708;53.114;9.388;2024-03-22T03:55:55;10.00;99.90
19152;DHT22;9708;53.114;9.388;2024-03-22T03:58:21;10.00;99.90
19152;DHT22;9708;53.114;9.388;2024-03-22T04:00:47;10.10;99.90
19152;DHT22;9708;53.114;9.388;2024-03-22T04:03:14;10.00;99.90
19152;DHT22;9708;53.114;9.388;2024-03-22T04:05:40;10.10;99.90
19152;DHT22;9708;53.114;9.388;2024-03-22T04:08:08;10.10;99.90
19152;DHT22;9708;53.114;9.388;2024-03-22T04:10:34;10.10;99.90
19152;DHT22;9708;53.114;9.388;2024-03-22T04:13:01;10.20;99.90
19152;DHT22;9708;53.114;9.388;2024-03-22T04:15:27;10.10;99.90
19152;DHT22;9708;53.114;9.388;2024-03-22T04:17:56;10.10;99.90
19152;DHT22;9708;53.114;9.388;2024-03-22T04:20:22;10.20;99.90
19152;DHT22;9708;53.114;9.388;2024-03-22T04:22:49;10.20;99.90
19152;DHT22;9708;53.114;9.388;2024-03-22T04:25:19;10.20;99.90
19152;DHT22;9708;53.114;9.388;2024-03-22T04:27:45;10.20;99.90
19152;DHT22;9708;53.114;9.388;2024-03-22T04:30:12;10.20;99.90
19152;DHT22;9708;53.114;9.388;2024-03-22T04:32:39;10.20;99.90
19152;DHT22;9708;53.114;9.388;2024-03-22T04:35:05;10.20;99.90
19152;DHT22;9708;53.114;9.388;2024-03-22T04:37:32;10.20;99.90
19152;DHT22;9708;53.114;9.388;2024-03-22T04:39:59;10.30;99.90
19152;DHT22;9708;53.114;9.388;2024-03-22T04:42:27;10.20;99.90
19152;DHT22;9708;53.114;9.388;2024-03-22T04:44:54;10.20;99.90
19152;DHT22;9708;53.114;9.388;2024-03-22T04:47:21;10.20;99.90
19152;DHT22;9708;53.114;9.388;2024-03-22T04:49:47;10.30;99.90
19152;DHT22;9708;53.114;9.388;2024-03-22T04:52:14;10.30;99.90
19152;DHT22;9708;53.114;9.388;2024-03-22T04:54:40;10.20;99.90
19152;DHT22;9708;53.114;9.388;2024-03-22T04:57:06;10.20;99.90
19152;DHT22;9708;53.114;9.388;2024-03-22T04:59:34;10.30;99.90
19152;DHT22;9708;53.114;9.388;2024-03-22T05:02:00;10.30;99.90
19152;DHT22;9708;53.114;9.388;2024-03-22T05:04:26;10.20;99.90
19152;DHT22;9708;53.114;9.388;2024-03-22T05:06:53;10.30;99.90
19152;DHT22;9708;53.114;9.388;2024-03-22T05:09:19;10.30;99.90
19152;DHT22;9708;53.114;9.388;2024-03-22T05:11:46;10.30;99.90
19152;DHT22;9708;53.114;9.388;2024-03-22T05:14:15;10.30;99.90
19152;DHT22;9708;53.114;9.388;2024-03-22T05:16:44;10.30;99.90
19152;DHT22;9708;53.114;9.388;2024-03-22T05:19:10;10.30;99.90
19152;DHT22;9708;53.114;9.388;2024-03-22T05:21:36;10.30;99.90
19152;DHT22;9708;53.114;9.388;2024-03-22T05:24:02;10.30;99.90
19152;DHT22;9708;53.114;9.388;2024-03-22T05:26:29;10.40;99.90
19152;DHT22;9708;53.114;9.388;2024-03-22T05:29:01;10.40;99.90
19152;DHT22;9708;53.114;9.388;2024-03-22T05:31:28;10.40;99.90
19152;DHT22;9708;53.114;9.388;2024-03-22T05:33:55;10.40;99.90
19152;DHT22;9708;53.114;9.388;2024-03-22T05:36:22;10.40;99.90
19152;DHT22;9708;53.114;9.388;2024-03-22T05:38:49;10.40;99.90
19152;DHT22;9708;53.114;9.388;2024-03-22T05:41:15;10.50;99.90
19152;DHT22;9708;53.114;9.388;2024-03-22T05:43:41;10.40;99.90
19152;DHT22;9708;53.114;9.388;2024-03-22T05:46:07;10.50;99.90
19152;DHT22;9708;53.114;9.388;2024-03-22T05:48:34;10.50;99.90
19152;DHT22;9708;53.114;9.388;2024-03-22T05:51:01;10.50;99.90
19152;DHT22;9708;53.114;9.388;2024-03-22T05:53:28;10.50;99.90
19152;DHT22;9708;53.114;9.388;2024-03-22T05:55:54;10.50;99.90
19152;DHT22;9708;53.114;9.388;2024-03-22T05:58:21;10.50;99.90
19152;DHT22;9708;53.114;9.388;2024-03-22T06:00:47;10.50;99.90
19152;DHT22;9708;53.114;9.388;2024-03-22T06:03:13;10.50;99.90
19152;DHT22;9708;53.114;9.388;2024-03-22T06:05:39;10.50;99.90
19152;DHT22;9708;53.114;9.388;2024-03-22T06:08:08;10.50;99.90
19152;DHT22;9708;53.114;9.388;2024-03-22T06:10:33;10.60;99.90
19152;DHT22;9708;53.114;9.388;2024-03-22T06:13:00;10.50;99.90
19152;DHT22;9708;53.114;9.388;2024-03-22T06:15:26;10.50;99.90
19152;DHT22;9708;53.114;9.388;2024-03-22T06:17:53;10.60;99.90
19152;DHT22;9708;53.114;9.388;2024-03-22T06:20:19;10.60;99.90
19152;DHT22;9708;53.114;9.388;2024-03-22T06:22:46;10.60;99.90
19152;DHT22;9708;53.114;9.388;2024-03-22T06:25:13;10.60;99.90
19152;DHT22;9708;53.114;9.388;2024-03-22T06:27:40;10.70;99.90
19152;DHT22;9708;53.114;9.388;2024-03-22T06:30:06;10.70;99.90
19152;DHT22;9708;53.114;9.388;2024-03-22T06:32:34;10.70;99.90
19152;DHT22;9708;53.114;9.388;2024-03-22T06:34:59;10.80;99.90
19152;DHT22;9708;53.114;9.388;2024-03-22T06:37:26;10.80;99.90
19152;DHT22;9708;53.114;9.388;2024-03-22T06:39:52;10.90;99.90
19152;DHT22;9708;53.114;9.388;2024-03-22T06:42:20;10.90;99.90
19152;DHT22;9708;53.114;9.388;2024-03-22T06:44:46;10.90;99.90
19152;DHT22;9708;53.114;9.388;2024-03-22T06:47:13;11.00;99.90
19152;DHT22;9708;53.114;9.388;2024-03-22T06:49:39;11.00;99.90
19152;DHT22;9708;53.114;9.388;2024-03-22T06:52:06;11.00;99.90
19152;DHT22;9708;53.114;9.388;2024-03-22T06:54:32;11.00;99.90
19152;DHT22;9708;53.114;9.388;2024-03-22T06:56:59;10.90;99.90
19152;DHT22;9708;53.114;9.388;2024-03-22T06:59:26;11.00;99.90
19152;DHT22;9708;53.114;9.388;2024-03-22T07:01:53;11.00;99.90
19152;DHT22;9708;53.114;9.388;2024-03-22T07:04:19;11.00;99.90
19152;DHT22;9708;53.114;9.388;2024-03-22T07:06:45;11.00;99.90
19152;DHT22;9708;53.114;9.388;2024-03-22T07:09:11;11.00;99.90
19152;DHT22;9708;53.114;9.388;2024-03-22T07:11:39;11.10;99.90
19152;DHT22;9708;53.114;9.388;2024-03-22T07:14:05;11.10;99.90
19152;DHT22;9708;53.114;9.388;2024-03-22T07:16:33;11.10;99.90
19152;DHT22;9708;53.114;9.388;2024-03-22T07:18:59;11.20;99.90
19152;DHT22;9708;53.114;9.388;2024-03-22T07:21:26;11.20;99.90
19152;DHT22;9708;53.114;9.388;2024-03-22T07:23:52;11.30;99.90
19152;DHT22;9708;53.114;9.388;2024-03-22T07:26:19;11.20;99.90
19152;DHT22;9708;53.114;9.388;2024-03-22T07:28:45;11.20;99.90
19152;DHT22;9708;53.114;9.388;2024-03-22T07:31:12;11.20;99.90
19152;DHT22;9708;53.114;9.388;2024-03-22T07:33:39;11.10;99.90
19152;DHT22;9708;53.114;9.388;2024-03-22T07:36:06;11.10;99.90
19152;DHT22;9708;53.114;9.388;2024-03-22T07:38:32;11.00;99.90
19152;DHT22;9708;53.114;9.388;2024-03-22T07:40:59;11.00;99.90
19152;DHT22;9708;53.114;9.388;2024-03-22T07:43:25;11.00;99.90
19152;DHT22;9708;53.114;9.388;2024-03-22T07:45:53;11.10;99.90
19152;DHT22;9708;53.114;9.388;2024-03-22T07:48:18;11.00;99.90
19152;DHT22;9708;53.114;9.388;2024-03-22T07:50:47;11.00;99.90
19152;DHT22;9708;53.114;9.388;2024-03-22T07:53:21;11.00;99.90
19152;DHT22;9708;53.114;9.388;2024-03-22T07:55:48;11.10;99.90
19152;DHT22;9708;53.114;9.388;2024-03-22T07:58:13;11.10;99.90
19152;DHT22;9708;53.114;9.388;2024-03-22T08:00:40;11.10;99.90
19152;DHT22;9708;53.114;9.388;2024-03-22T08:03:06;11.10;99.90
19152;DHT22;9708;53.114;9.388;2024-03-22T08:05:33;11.00;99.90
19152;DHT22;9708;53.114;9.388;2024-03-22T08:08:00;11.10;99.90
19152;DHT22;9708;53.114;9.388;2024-03-22T08:10:27;11.10;99.90
19152;DHT22;9708;53.114;9.388;2024-03-22T08:12:53;11.10;99.90
19152;DHT22;9708;53.114;9.388;2024-03-22T08:15:21;11.10;99.90
19152;DHT22;9708;53.114;9.388;2024-03-22T08:17:47;11.10;99.90
19152;DHT22;9708;53.114;9.388;2024-03-22T08:20:14;11.10;99.90
19152;DHT22;9708;53.114;9.388;2024-03-22T08:22:40;11.10;99.90
19152;DHT22;9708;53.114;9.388;2024-03-22T08:25:08;11.20;99.90
19152;DHT22;9708;53.114;9.388;2024-03-22T08:27:34;11.20;99.90
19152;DHT22;9708;53.114;9.388;2024-03-22T08:30:01;11.30;99.90
19152;DHT22;9708;53.114;9.388;2024-03-22T08:32:28;11.30;99.90
19152;DHT22;9708;53.114;9.388;2024-03-22T08:34:56;11.20;99.90
19152;DHT22;9708;53.114;9.388;2024-03-22T08:37:22;11.20;99.90
19152;DHT22;9708;53.114;9.388;2024-03-22T08:39:49;11.20;99.90
19152;DHT22;9708;53.114;9.388;2024-03-22T08:42:16;11.20;99.90
19152;DHT22;9708;53.114;9.388;2024-03-22T08:44:43;11.30;99.90
19152;DHT22;9708;53.114;9.388;2024-03-22T08:47:09;11.30;99.90
19152;DHT22;9708;53.114;9.388;2024-03-22T08:49:36;11.30;99.90
19152;DHT22;9708;53.114;9.388;2024-03-22T08:52:02;11.30;99.90
19152;DHT22;9708;53.114;9.388;2024-03-22T08:54:28;11.30;99.90
19152;DHT22;9708;53.114;9.388;2024-03-22T08:56:54;11.30;99.90
19152;DHT22;9708;53.114;9.388;2024-03-22T08:59:23;11.20;99.90
19152;DHT22;9708;53.114;9.388;2024-03-22T09:01:50;11.20;99.90
19152;DHT22;9708;53.114;9.388;2024-03-22T09:04:17;11.20;99.90
19152;DHT22;9708;53.114;9.388;2024-03-22T09:06:43;11.20;99.90
19152;DHT22;9708;53.114;9.388;2024-03-22T09:09:10;11.30;99.90
19152;DHT22;9708;53.114;9.388;2024-03-22T09:11:37;11.40;99.90
19152;DHT22;9708;53.114;9.388;2024-03-22T09:14:04;11.40;99.90
19152;DHT22;9708;53.114;9.388;2024-03-22T09:16:31;11.40;99.90
19152;DHT22;9708;53.114;9.388;2024-03-22T09:18:58;11.40;99.90
19152;DHT22;9708;53.114;9.388;2024-03-22T09:21:24;11.40;99.90
19152;DHT22;9708;53.114;9.388;2024-03-22T09:23:50;11.40;99.90
19152;DHT22;9708;53.114;9.388;2024-03-22T09:26:16;11.40;99.90
19152;DHT22;9708;53.114;9.388;2024-03-22T09:28:46;11.30;99.90
19152;DHT22;9708;53.114;9.388;2024-03-22T09:31:12;11.30;99.90
19152;DHT22;9708;53.114;9.388;2024-03-22T09:33:40;11.30;99.90
19152;DHT22;9708;53.114;9.388;2024-03-22T09:36:08;11.30;99.90
19152;DHT22;9708;53.114;9.388;2024-03-22T09:38:35;11.40;99.90
19152;DHT22;9708;53.114;9.388;2024-03-22T09:41:01;11.30;99.90
19152;DHT22;9708;53.114;9.388;2024-03-22T09:43:28;11.30;99.90
19152;DHT22;9708;53.114;9.388;2024-03-22T09:45:55;11.40;99.90
19152;DHT22;9708;53.114;9.388;2024-03-22T09:48:23;11.40;99.90
19152;DHT22;9708;53.114;9.388;2024-03-22T09:50:51;11.50;99.90
19152;DHT22;9708;53.114;9.388;2024-03-22T09:53:20;11.50;99.90
19152;DHT22;9708;53.114;9.388;2024-03-22T09:55:48;11.50;99.90
19152;DHT22;9708;53.114;9.388;2024-03-22T09:58:15;11.50;99.90
19152;DHT22;9708;53.114;9.388;2024-03-22T10:00:42;11.40;99.90
19152;DHT22;9708;53.114;9.388;2024-03-22T10:03:10;11.50;99.90
19152;DHT22;9708;53.114;9.388;2024-03-22T10:05:36;11.50;99.90
19152;DHT22;9708;53.114;9.388;2024-03-22T10:08:05;11.50;99.90
19152;DHT22;9708;53.114;9.388;2024-03-22T10:10:31;11.40;99.90
19152;DHT22;9708;53.114;9.388;2024-03-22T10:13:00;11.40;99.90
19152;DHT22;9708;53.114;9.388;2024-03-22T10:15:26;11.40;99.90
19152;DHT22;9708;53.114;9.388;2024-03-22T10:17:54;11.40;99.90
19152;DHT22;9708;53.114;9.388;2024-03-22T10:20:22;11.40;99.90
19152;DHT22;9708;53.114;9.388;2024-03-22T10:22:54;11.40;99.90
19152;DHT22;9708;53.114;9.388;2024-03-22T10:25:22;11.50;99.90
19152;DHT22;9708;53.114;9.388;2024-03-22T10:27:49;11.50;99.90
19152;DHT22;9708;53.114;9.388;2024-03-22T10:30:16;11.50;99.90
19152;DHT22;9708;53.114;9.388;2024-03-22T10:32:44;11.60;99.90
19152;DHT22;9708;53.114;9.388;2024-03-22T10:35:12;11.50;99.90
19152;DHT22;9708;53.114;9.388;2024-03-22T10:37:39;11.50;99.90
19152;DHT22;9708;53.114;9.388;2024-03-22T10:40:06;11.50;99.90
19152;DHT22;9708;53.114;9.388;2024-03-22T10:42:37;11.40;99.90
19152;DHT22;9708;53.114;9.388;2024-03-22T10:45:03;11.30;99.90
19152;DHT22;9708;53.114;9.388;2024-03-22T10:47:31;11.40;99.90
19152;DHT22;9708;53.114;9.388;2024-03-22T10:50:04;11.40;99.90
19152;DHT22;9708;53.114;9.388;2024-03-22T10:52:34;11.30;99.90
19152;DHT22;9708;53.114;9.388;2024-03-22T10:55:03;11.30;99.90
19152;DHT22;9708;53.114;9.388;2024-03-22T10:57:32;11.20;99.90
19152;DHT22;9708;53.114;9.388;2024-03-22T11:00:04;11.10;99.90
19152;DHT22;9708;53.114;9.388;2024-03-22T11:02:36;11.30;99.90
19152;DHT22;9708;53.114;9.388;2024-03-22T11:05:02;11.30;99.90
19152;DHT22;9708;53.114;9.388;2024-03-22T11:07:30;11.40;99.90
19152;DHT22;9708;53.114;9.388;2024-03-22T11:10:01;11.40;99.90
19152;DHT22;9708;53.114;9.388;2024-03-22T11:12:29;11.40;99.90
19152;DHT22;9708;53.114;9.388;2024-03-22T11:14:59;11.50;99.90
19152;DHT22;9708;53.114;9.388;2024-03-22T11:17:27;11.60;99.90
19152;DHT22;9708;53.114;9.388;2024-03-22T11:19:54;11.70;99.90
19152;DHT22;9708;53.114;9.388;2024-03-22T11:22:20;11.80;99.90
19152;DHT22;9708;53.114;9.388;2024-03-22T11:24:47;11.80;99.90
19152;DHT22;9708;53.114;9.388;2024-03-22T11:27:13;11.70;99.90
19152;DHT22;9708;53.114;9.388;2024-03-22T11:29:40;11.60;99.90
19152;DHT22;9708;53.114;9.388;2024-03-22T11:32:07;11.50;99.90
19152;DHT22;9708;53.114;9.388;2024-03-22T11:34:36;11.40;99.90
19152;DHT22;9708;53.114;9.388;2024-03-22T11:37:03;11.40;99.90
19152;DHT22;9708;53.114;9.388;2024-03-22T11:39:30;11.50;99.90
19152;DHT22;9708;53.114;9.388;2024-03-22T11:41:56;11.40;99.90
19152;DHT22;9708;53.114;9.388;2024-03-22T11:44:23;11.40;99.90
19152;DHT22;9708;53.114;9.388;2024-03-22T11:46:51;11.40;99.90
19152;DHT22;9708;53.114;9.388;2024-03-22T11:49:18;11.40;99.90
19152;DHT22;9708;53.114;9.388;2024-03-22T11:51:46;11.50;99.90
19152;DHT22;9708;53.114;9.388;2024-03-22T11:54:13;11.50;99.90
19152;DHT22;9708;53.114;9.388;2024-03-22T11:56:39;11.70;99.90
19152;DHT22;9708;53.114;9.388;2024-03-22T11:59:06;11.80;99.90
19152;DHT22;9708;53.114;9.388;2024-03-22T12:01:33;11.80;99.90
19152;DHT22;9708;53.114;9.388;2024-03-22T12:03:59;11.80;99.90
19152;DHT22;9708;53.114;9.388;2024-03-22T12:06:25;11.80;99.90
19152;DHT22;9708;53.114;9.388;2024-03-22T12:08:54;11.90;99.90
19152;DHT22;9708;53.114;9.388;2024-03-22T12:11:19;11.80;99.90
19152;DHT22;9708;53.114;9.388;2024-03-22T12:13:47;11.80;99.90
19152;DHT22;9708;53.114;9.388;2024-03-22T12:16:12;11.80;99.90
19152;DHT22;9708;53.114;9.388;2024-03-22T12:18:39;11.80;99.90
19152;DHT22;9708;53.114;9.388;2024-03-22T12:21:05;11.90;99.90
19152;DHT22;9708;53.114;9.388;2024-03-22T12:23:32;11.80;99.90
19152;DHT22;9708;53.114;9.388;2024-03-22T12:25:59;11.80;99.90
19152;DHT22;9708;53.114;9.388;2024-03-22T12:28:26;11.80;99.90
19152;DHT22;9708;53.114;9.388;2024-03-22T12:30:52;11.60;99.90
19152;DHT22;9708;53.114;9.388;2024-03-22T12:33:19;11.70;99.90
19152;DHT22;9708;53.114;9.388;2024-03-22T12:35:45;11.60;99.90
19152;DHT22;9708;53.114;9.388;2024-03-22T12:38:12;11.60;99.90
19152;DHT22;9708;53.114;9.388;2024-03-22T12:40:39;11.70;99.90
19152;DHT22;9708;53.114;9.388;2024-03-22T12:43:09;11.70;99.90
19152;DHT22;9708;53.114;9.388;2024-03-22T12:45:35;11.60;99.90
19152;DHT22;9708;53.114;9.388;2024-03-22T12:48:02;11.60;99.90
19152;DHT22;9708;53.114;9.388;2024-03-22T12:50:28;11.70;99.90
19152;DHT22;9708;53.114;9.388;2024-03-22T12:52:56;11.60;99.90
19152;DHT22;9708;53.114;9.388;2024-03-22T12:55:21;11.60;99.90
19152;DHT22;9708;53.114;9.388;2024-03-22T12:57:48;11.60;99.90
19152;DHT22;9708;53.114;9.388;2024-03-22T13:00:16;11.60;99.90
19152;DHT22;9708;53.114;9.388;2024-03-22T13:02:45;11.60;99.90
19152;DHT22;9708;53.114;9.388;2024-03-22T13:05:12;11.80;99.90
19152;DHT22;9708;53.114;9.388;2024-03-22T13:07:39;11.70;99.90
19152;DHT22;9708;53.114;9.388;2024-03-22T13:10:05;11.70;99.90
19152;DHT22;9708;53.114;9.388;2024-03-22T13:12:33;11.60;99.90
19152;DHT22;9708;53.114;9.388;2024-03-22T13:15:00;11.60;99.90
19152;DHT22;9708;53.114;9.388;2024-03-22T13:17:28;11.60;99.90
19152;DHT22;9708;53.114;9.388;2024-03-22T13:19:54;11.60;99.90
19152;DHT22;9708;53.114;9.388;2024-03-22T13:22:21;11.50;99.90
19152;DHT22;9708;53.114;9.388;2024-03-22T13:24:47;11.50;99.90
19152;DHT22;9708;53.114;9.388;2024-03-22T13:27:16;11.60;99.90
19152;DHT22;9708;53.114;9.388;2024-03-22T13:29:42;11.60;99.90
19152;DHT22;9708;53.114;9.388;2024-03-22T13:32:09;11.50;99.90
19152;DHT22;9708;53.114;9.388;2024-03-22T13:34:36;11.50;99.90
19152;DHT22;9708;53.114;9.388;2024-03-22T13:37:04;11.50;99.90
19152;DHT22;9708;53.114;9.388;2024-03-22T13:39:30;11.50;99.90
19152;DHT22;9708;53.114;9.388;2024-03-22T13:41:57;11.60;99.90
19152;DHT22;9708;53.114;9.388;2024-03-22T13:44:23;11.60;99.90
19152;DHT22;9708;53.114;9.388;2024-03-22T13:46:50;11.60;99.90
19152;DHT22;9708;53.114;9.388;2024-03-22T13:49:17;11.50;99.90
19152;DHT22;9708;53.114;9.388;2024-03-22T13:51:47;11.60;99.90
19152;DHT22;9708;53.114;9.388;2024-03-22T13:54:14;11.60;99.90
19152;DHT22;9708;53.114;9.388;2024-03-22T13:56:41;11.60;99.90
19152;DHT22;9708;53.114;9.388;2024-03-22T13:59:07;11.60;99.90
19152;DHT22;9708;53.114;9.388;2024-03-22T14:01:34;11.60;99.90
19152;DHT22;9708;53.114;9.388;2024-03-22T14:04:00;11.60;99.90
19152;DHT22;9708;53.114;9.388;2024-03-22T14:06:27;11.70;99.90
19152;DHT22;9708;53.114;9.388;2024-03-22T14:08:54;11.60;99.90
19152;DHT22;9708;53.114;9.388;2024-03-22T14:11:26;11.70;99.90
19152;DHT22;9708;53.114;9.388;2024-03-22T14:13:52;11.70;99.90
19152;DHT22;9708;53.114;9.388;2024-03-22T14:16:19;11.70;99.90
19152;DHT22;9708;53.114;9.388;2024-03-22T14:18:45;11.80;99.90
19152;DHT22;9708;53.114;9.388;2024-03-22T14:21:11;11.90;99.90
19152;DHT22;9708;53.114;9.388;2024-03-22T14:23:42;11.90;99.90
19152;DHT22;9708;53.114;9.388;2024-03-22T14:26:10;11.90;99.90
19152;DHT22;9708;53.114;9.388;2024-03-22T14:28:36;11.80;99.90
19152;DHT22;9708;53.114;9.388;2024-03-22T14:31:05;11.90;99.90
19152;DHT22;9708;53.114;9.388;2024-03-22T14:33:33;11.80;99.90
19152;DHT22;9708;53.114;9.388;2024-03-22T14:36:01;11.90;99.90
19152;DHT22;9708;53.114;9.388;2024-03-22T14:38:26;11.80;99.90
19152;DHT22;9708;53.114;9.388;2024-03-22T14:40:54;11.70;99.90
19152;DHT22;9708;53.114;9.388;2024-03-22T14:43:22;11.70;99.90
19152;DHT22;9708;53.114;9.388;2024-03-22T14:45:49;11.70;99.90
19152;DHT22;9708;53.114;9.388;2024-03-22T14:48:14;11.80;99.90
19152;DHT22;9708;53.114;9.388;2024-03-22T14:50:41;11.70;99.90
19152;DHT22;9708;53.114;9.388;2024-03-22T14:53:07;11.80;99.90
19152;DHT22;9708;53.114;9.388;2024-03-22T14:55:34;11.80;99.90
19152;DHT22;9708;53.114;9.388;2024-03-22T14:58:02;11.80;99.90
19152;DHT22;9708;53.114;9.388;2024-03-22T15:00:30;11.70;99.90
19152;DHT22;9708;53.114;9.388;2024-03-22T15:02:56;11.70;99.90
19152;DHT22;9708;53.114;9.388;2024-03-22T15:05:23;11.60;99.90
19152;DHT22;9708;53.114;9.388;2024-03-22T15:07:49;11.60;99.90
19152;DHT22;9708;53.114;9.388;2024-03-22T15:10:16;11.50;99.90
19152;DHT22;9708;53.114;9.388;2024-03-22T15:12:41;11.40;99.90
19152;DHT22;9708;53.114;9.388;2024-03-22T15:15:09;11.40;99.90
19152;DHT22;9708;53.114;9.388;2024-03-22T15:17:36;11.30;99.90
19152;DHT22;9708;53.114;9.388;2024-03-22T15:20:03;11.30;99.90
19152;DHT22;9708;53.114;9.388;2024-03-22T15:22:30;11.30;99.90
19152;DHT22;9708;53.114;9.388;2024-03-22T15:24:57;11.30;99.90
19152;DHT22;9708;53.114;9.388;2024-03-22T15:27:22;11.20;99.90
19152;DHT22;9708;53.114;9.388;2024-03-22T15:29:50;11.20;99.90
19152;DHT22;9708;53.114;9.388;2024-03-22T15:32:16;11.10;99.90
19152;DHT22;9708;53.114;9.388;2024-03-22T15:34:47;11.00;99.90
19152;DHT22;9708;53.114;9.388;2024-03-22T15:37:12;11.00;99.90
19152;DHT22;9708;53.114;9.388;2024-03-22T15:39:39;11.10;99.90
19152;DHT22;9708;53.114;9.388;2024-03-22T15:42:05;11.20;99.90
19152;DHT22;9708;53.114;9.388;2024-03-22T15:44:32;11.20;99.90